Scampton, United Kingdom
Current Conditions -  °F | °C
As of 1:50 AM on Saturday 20 Dec 2014 (Local Time) from EGXP Reporting Station
Broken Clouds Broken Clouds  
Wind Chill:   Ceiling: 2600
Heat Index:   Visibility: 6mi
Dew Point:   Wind: 22mph
Humidity: 81%   Direction: 250°WSW
Pressure: 30"   Gusts: 33mph
Location:  53.3°N, 0.58°W
Report Text: EGXP 200150Z AUTO 25019G29KT 9999 // BKN026/// 06/03 Q1016
Loading
Personal Weather Stations






























Interactive Weather Map New forecast layout! Learn more

10-Day Weather Forecast

Advertisements
Track Severe Weather on mobile